METAR AND TAF INFORMATION
METAR FOR SBCG
ADDS - METARS form results

(0617 UTC 27 April 2018)
Data provider http://aviationweather.gov/adds/metars/
 
METAR text: SBCG 270600Z 07008KT CAVOK 21/16 Q1015
Conditions at: SBCG (CAMPO GRANDE INT, BR) observed 0600 UTC 27 April 2018
Temperature: 21.0°C (70°F)
Dewpoint: 16.0°C (61°F) [RH = 73%]
Pressure (altimeter): 29.97 inches Hg (1015.0 mb)
Winds: from the ENE (70 degrees) at 9 MPH (8 knots; 4.2 m/s)
Visibility: 6 or more miles (10+ km)
Ceiling: ceiling and visibility are OK
Clouds: unknown
Weather: no significant weather observed at this time

Forecast for: SBCG (CAMPO GRANDE INT, BR)
Text: TAF SBCG 270330Z 2706/2806 08009KT CAVOK TX31/2717Z TN22/2806Z
Forecast period: 0600 to 1500 UTC 27 April 2018
Forecast type: FROM: standard forecast or significant change
Winds: from the E (80 degrees) at 10 MPH (9 knots; 4.7 m/s)
Visibility: 6 or more miles (10+ km)
Clouds: not forecast
Weather: no significant weather forecast for this period
Forecast for: SBCG (CAMPO GRANDE INT, BR)
Text: TAF SBCG 270330Z 2706/2806 08009KT CAVOK TX31/2717Z TN22/2806Z
Forecast period: 0600 to 1500 UTC 27 April 2018
Forecast type: FROM: standard forecast or significant change
Winds: from the E (80 degrees) at 10 MPH (9 knots; 4.7 m/s)
Visibility: 6 or more miles (10+ km)
Clouds: not forecast
Weather: no significant weather forecast for this period
Forecast for: SBCG (CAMPO GRANDE INT, BR)
Text: TAF SBCG 270330Z 2706/2806 08009KT CAVOK TX31/2717Z TN22/2806Z
Forecast period: 1500 to 2100 UTC 27 April 2018
Forecast type: BECOMING: Conditions expected to become as follows by 1700 UTC 27 April 2018
Winds: from the N (350 degrees) at 7 MPH (6 knots; 3.1 m/s)
Visibility: 6 or more miles (10+ km)
Clouds: scattered clouds at 4000 feet AGL
few clouds at 4500 feet AGL
Weather: no significant weather forecast for this period
Forecast for: SBCG (CAMPO GRANDE INT, BR)
Text: TAF SBCG 270330Z 2706/2806 08009KT CAVOK TX31/2717Z TN22/2806Z
Forecast period: 1500 to 2100 UTC 27 April 2018
Forecast type: BECOMING: Conditions expected to become as follows by 1700 UTC 27 April 2018
Winds: from the N (350 degrees) at 7 MPH (6 knots; 3.1 m/s)
Visibility: 6 or more miles (10+ km)
Clouds: scattered clouds at 4000 feet AGL
few clouds at 4500 feet AGL
Weather: no significant weather forecast for this period
Forecast for: SBCG (CAMPO GRANDE INT, BR)
Text: TAF SBCG 270330Z 2706/2806 08009KT CAVOK TX31/2717Z TN22/2806Z
Forecast period: 1900 to 2100 UTC 27 April 2018
Forecast type: TEMPORARY: The following changes expected for less than half the time period
Weather: VCSH  (showers in vicinity)
Forecast for: SBCG (CAMPO GRANDE INT, BR)
Text: TAF SBCG 270330Z 2706/2806 08009KT CAVOK TX31/2717Z TN22/2806Z
Forecast period: 1900 to 2100 UTC 27 April 2018
Forecast type: TEMPORARY: The following changes expected for less than half the time period
Weather: VCSH  (showers in vicinity)
Forecast for: SBCG (CAMPO GRANDE INT, BR)
Text: TAF SBCG 270330Z 2706/2806 08009KT CAVOK TX31/2717Z TN22/2806Z
Forecast period: 2100 UTC 27 April 2018 to 0600 UTC 28 April 2018
Forecast type: BECOMING: Conditions expected to become as follows by 2300 UTC 27 April 2018
Winds: from the NNE (30 degrees) at 6 MPH (5 knots; 2.6 m/s)
Visibility: 6 or more miles (10+ km)
Clouds: few clouds at 4500 feet AGL
few clouds at 5000 feet AGL
Weather: no significant weather forecast for this period
Forecast for: SBCG (CAMPO GRANDE INT, BR)
Text: TAF SBCG 270330Z 2706/2806 08009KT CAVOK TX31/2717Z TN22/2806Z
Forecast period: 2100 UTC 27 April 2018 to 0600 UTC 28 April 2018
Forecast type: BECOMING: Conditions expected to become as follows by 2300 UTC 27 April 2018
Winds: from the NNE (30 degrees) at 6 MPH (5 knots; 2.6 m/s)
Visibility: 6 or more miles (10+ km)
Clouds: few clouds at 4500 feet AGL
few clouds at 5000 feet AGL
Weather: no significant weather forecast for this period

 AIRPORT MAP

 RUNWAY INFORMATION
Runway 6 Runway length 8530 ft Runway width 141 ft
Runway elevation 0 ft Runway displaced threshold 0 ft Runway heading 0
Runway 24 Runway length 8530 ft Runway width 141 ft
Runway elevation 0 ft Runway displaced threshold 0 ft Runway heading 0

 AIRPORT FREQUENCIES
Type APP Name APP Frequency 120.2 MHZ
Type GND Name GND Frequency 121.9 MHZ
Type OPS Name OPS Frequency 122.5 MHZ
Type TWR Name TWR Frequency 118.1 MHZ

 AIRPORT NEAR NAVIGATION AIDS
Type VOR-DME Name Campo Grande Frequency 115700 KHZ
Type NDB Name Campo Grande Frequency 270 KHZ
Type NDB Name Soja Frequency 395 KHZ
Type NDB Name Maraca Frequency 215 KHZ